createdAt,value
2017-09-07T00:01:25.877Z,14.48
2017-09-07T00:04:00.520Z,14.43
2017-09-07T00:06:35.208Z,14.39
2017-09-07T00:09:09.913Z,14.46
2017-09-07T00:11:44.436Z,14.43
2017-09-07T00:14:20.195Z,14.35
2017-09-07T00:16:54.850Z,14.33
2017-09-07T00:19:29.536Z,14.29
2017-09-07T00:22:04.276Z,14.27
2017-09-07T00:24:39.937Z,14.29
2017-09-07T00:27:14.585Z,14.31
2017-09-07T00:29:49.337Z,14.33
2017-09-07T00:32:23.843Z,14.29
2017-09-07T00:34:58.553Z,14.29
2017-09-07T00:37:33.425Z,14.20
2017-09-07T00:40:08.126Z,14.19
2017-09-07T00:42:42.752Z,14.11
2017-09-07T00:45:17.065Z,14.15
2017-09-07T00:47:51.981Z,14.15
2017-09-07T00:50:26.366Z,14.19
2017-09-07T00:53:00.915Z,14.10
2017-09-07T00:55:35.989Z,14.08
2017-09-07T00:58:10.505Z,14.06
2017-09-07T01:00:45.345Z,14.13
2017-09-07T01:03:20.297Z,14.03
2017-09-07T01:05:55.024Z,14.09
2017-09-07T01:08:29.412Z,14.16
2017-09-07T01:11:04.128Z,14.08
2017-09-07T01:13:38.893Z,14.07
2017-09-07T01:16:13.793Z,14.09
2017-09-07T01:18:48.402Z,14.12
2017-09-07T01:21:22.776Z,14.12
2017-09-07T01:23:57.312Z,14.18
2017-09-07T01:26:31.989Z,14.14
2017-09-07T01:29:06.698Z,14.17
2017-09-07T01:31:42.837Z,14.16
2017-09-07T01:34:17.092Z,14.08
2017-09-07T01:36:52.044Z,14.13
2017-09-07T01:39:26.977Z,14.07
2017-09-07T01:42:01.705Z,14.03
2017-09-07T01:44:36.425Z,14.05
2017-09-07T01:47:11.360Z,14.04
2017-09-07T01:49:46.215Z,14.02
2017-09-07T01:52:21.061Z,14.09
2017-09-07T01:54:55.373Z,14.04
2017-09-07T01:57:30.237Z,13.99
2017-09-07T02:00:04.998Z,13.97
2017-09-07T02:02:39.829Z,14.03
2017-09-07T02:05:14.432Z,13.98
2017-09-07T02:07:48.989Z,14.03
2017-09-07T02:10:24.014Z,14.01
2017-09-07T02:12:58.734Z,14.02
2017-09-07T02:15:33.516Z,13.99
2017-09-07T02:18:08.328Z,13.94
2017-09-07T02:20:42.880Z,13.92
2017-09-07T02:23:17.620Z,13.92
2017-09-07T02:25:51.977Z,14.02
2017-09-07T02:28:26.449Z,14.01
2017-09-07T02:31:01.285Z,14.05
2017-09-07T02:33:36.108Z,13.97
2017-09-07T02:36:10.842Z,13.94
2017-09-07T02:38:46.224Z,14.03
2017-09-07T02:41:21.050Z,14.06
2017-09-07T02:43:56.436Z,14.02
2017-09-07T02:46:31.136Z,14.01
2017-09-07T02:49:05.809Z,14.00
2017-09-07T02:51:40.560Z,13.98
2017-09-07T02:54:15.540Z,13.97
2017-09-07T02:56:50.049Z,13.97
2017-09-07T02:59:24.556Z,13.94
2017-09-07T03:01:59.281Z,13.93
2017-09-07T03:04:33.982Z,14.02
2017-09-07T03:07:08.760Z,14.09
2017-09-07T03:09:43.516Z,14.07
2017-09-07T03:12:18.269Z,14.06
2017-09-07T03:14:53.027Z,14.04
2017-09-07T03:17:27.876Z,14.02
2017-09-07T03:20:02.661Z,14.05
2017-09-07T03:22:37.436Z,14.05
2017-09-07T03:25:12.228Z,14.07
2017-09-07T03:27:46.695Z,14.03
2017-09-07T03:30:22.726Z,14.07
2017-09-07T03:32:57.168Z,14.13
2017-09-07T03:35:31.822Z,14.10
2017-09-07T03:38:06.385Z,14.07
2017-09-07T03:40:41.160Z,14.08
2017-09-07T03:43:15.806Z,13.99
2017-09-07T03:45:51.765Z,13.99
2017-09-07T03:48:26.469Z,13.99
2017-09-07T03:51:01.216Z,13.98
2017-09-07T03:53:35.996Z,14.04
2017-09-07T03:56:10.721Z,14.00
2017-09-07T03:58:45.585Z,13.98
2017-09-07T04:01:20.280Z,13.99
2017-09-07T04:03:54.941Z,14.02
2017-09-07T04:06:29.605Z,14.03
2017-09-07T04:09:04.445Z,14.01
2017-09-07T04:11:39.744Z,14.01
2017-09-07T04:14:14.508Z,14.01
2017-09-07T04:16:49.429Z,13.97
2017-09-07T04:19:24.200Z,13.99
2017-09-07T04:21:59.096Z,14.08
2017-09-07T04:24:33.941Z,14.03
2017-09-07T04:27:08.461Z,14.03
2017-09-07T04:29:43.332Z,14.05
2017-09-07T04:32:18.064Z,14.11
2017-09-07T04:34:52.725Z,14.10
2017-09-07T04:37:27.472Z,14.16
2017-09-07T04:40:02.296Z,14.12
2017-09-07T04:42:36.937Z,14.19
2017-09-07T04:45:11.470Z,14.11
2017-09-07T04:47:46.165Z,14.07
2017-09-07T04:50:20.885Z,14.14
2017-09-07T04:52:55.540Z,14.10
2017-09-07T04:55:29.965Z,14.12
2017-09-07T04:58:04.705Z,14.11
2017-09-07T05:00:39.530Z,14.15
2017-09-07T05:03:14.330Z,14.19
2017-09-07T05:05:48.888Z,14.13
2017-09-07T05:08:23.613Z,14.13
2017-09-07T05:10:58.597Z,14.18
2017-09-07T05:13:33.240Z,14.16
2017-09-07T05:16:08.048Z,14.14
2017-09-07T05:18:42.908Z,14.12
2017-09-07T05:21:17.657Z,14.14
2017-09-07T05:23:52.488Z,14.17
2017-09-07T05:26:27.206Z,14.12
2017-09-07T05:29:01.869Z,14.11
2017-09-07T05:31:36.674Z,14.14
2017-09-07T05:34:11.520Z,14.11
2017-09-07T05:36:46.186Z,14.11
2017-09-07T05:39:21.048Z,14.06
2017-09-07T05:41:55.396Z,14.10
2017-09-07T05:44:30.136Z,14.23
2017-09-07T05:47:04.869Z,14.17
2017-09-07T05:49:39.653Z,14.17
2017-09-07T05:52:14.572Z,14.32
2017-09-07T05:54:49.436Z,14.25
2017-09-07T05:57:24.032Z,14.30
2017-09-07T05:59:58.881Z,14.25
2017-09-07T06:02:33.484Z,14.29
2017-09-07T06:05:08.218Z,14.33
2017-09-07T06:07:42.592Z,14.35
2017-09-07T06:10:17.625Z,14.47
2017-09-07T06:12:52.366Z,14.55
2017-09-07T06:15:26.977Z,14.56
2017-09-07T06:18:01.761Z,14.62
2017-09-07T06:20:36.221Z,14.63
2017-09-07T06:23:10.839Z,14.66
2017-09-07T06:25:45.492Z,14.69
2017-09-07T06:28:20.223Z,14.76
2017-09-07T06:30:55.907Z,14.84
2017-09-07T06:33:30.557Z,14.84
2017-09-07T06:36:05.280Z,14.88
2017-09-07T06:38:40.235Z,14.88
2017-09-07T06:41:15.004Z,14.88
2017-09-07T06:43:49.888Z,14.95
2017-09-07T06:46:24.525Z,15.04
2017-09-07T06:48:59.424Z,15.06
2017-09-07T06:51:34.068Z,14.98
2017-09-07T06:54:08.804Z,15.02
2017-09-07T06:56:43.329Z,15.03
2017-09-07T06:59:18.161Z,15.09
2017-09-07T07:01:52.908Z,15.14
2017-09-07T07:04:27.592Z,15.15
2017-09-07T07:07:02.241Z,15.15
2017-09-07T07:09:38.177Z,15.17
2017-09-07T07:12:13.002Z,15.24
2017-09-07T07:14:48.804Z,15.31
2017-09-07T07:17:23.432Z,15.29
2017-09-07T07:19:58.012Z,15.34
2017-09-07T07:22:32.756Z,15.31
2017-09-07T07:25:07.438Z,15.28
2017-09-07T07:27:42.345Z,15.38
2017-09-07T07:30:17.057Z,15.42
2017-09-07T07:32:51.705Z,15.71
2017-09-07T07:35:27.722Z,15.92
2017-09-07T07:38:02.445Z,15.93
2017-09-07T07:40:37.188Z,16.00
2017-09-07T07:43:11.985Z,16.13
2017-09-07T07:45:46.612Z,16.21
2017-09-07T07:48:21.367Z,16.28
2017-09-07T07:50:56.276Z,16.28
2017-09-07T07:53:30.916Z,16.36
2017-09-07T07:56:05.685Z,16.31
2017-09-07T07:58:40.481Z,16.34
2017-09-07T08:01:15.222Z,16.35
2017-09-07T08:03:49.667Z,16.53
2017-09-07T08:06:24.517Z,16.56
2017-09-07T08:08:59.195Z,16.62
2017-09-07T08:11:34.009Z,16.68
2017-09-07T08:14:08.674Z,16.68
2017-09-07T08:16:43.385Z,16.73
2017-09-07T08:19:17.930Z,16.80
2017-09-07T08:21:52.817Z,16.97
2017-09-07T08:24:27.477Z,17.00
2017-09-07T08:27:02.005Z,17.08
2017-09-07T08:29:36.745Z,17.00
2017-09-07T08:32:11.557Z,17.10
2017-09-07T08:34:46.301Z,17.03
2017-09-07T08:37:20.917Z,17.08
2017-09-07T08:39:55.601Z,17.15
2017-09-07T08:42:30.201Z,17.31
2017-09-07T08:45:05.001Z,17.47
2017-09-07T08:47:39.797Z,17.54
2017-09-07T08:50:14.501Z,17.53
2017-09-07T08:52:49.282Z,17.63
2017-09-07T08:55:24.336Z,18.01
2017-09-07T08:57:59.065Z,18.19
2017-09-07T09:00:33.775Z,18.36
2017-09-07T09:03:08.698Z,18.39
2017-09-07T09:05:43.457Z,18.80
2017-09-07T09:08:18.100Z,18.97
2017-09-07T09:10:52.783Z,18.99
2017-09-07T09:13:27.733Z,19.05
2017-09-07T09:16:02.641Z,19.22
2017-09-07T09:18:37.369Z,18.97
2017-09-07T09:21:12.100Z,19.11
2017-09-07T09:23:46.453Z,19.29
2017-09-07T09:26:22.177Z,19.47
2017-09-07T09:28:56.937Z,19.56
2017-09-07T09:31:31.901Z,19.77
2017-09-07T09:34:06.418Z,20.07
2017-09-07T09:36:41.202Z,20.11
2017-09-07T09:39:15.892Z,20.27
2017-09-07T09:41:50.625Z,20.56
2017-09-07T09:44:25.482Z,20.65
2017-09-07T09:47:01.137Z,20.60
2017-09-07T09:49:35.856Z,20.82
2017-09-07T09:52:10.657Z,20.73
2017-09-07T09:54:45.440Z,20.67
2017-09-07T09:57:21.184Z,20.47
2017-09-07T09:59:55.801Z,20.48
2017-09-07T10:02:30.440Z,20.14
2017-09-07T10:05:05.456Z,19.94
2017-09-07T10:07:40.202Z,19.88
2017-09-07T10:10:14.720Z,19.86
2017-09-07T10:12:49.540Z,19.82
2017-09-07T10:15:24.268Z,19.58
2017-09-07T10:17:58.821Z,19.41
2017-09-07T10:20:33.432Z,19.56
2017-09-07T10:23:08.172Z,19.78
2017-09-07T10:25:43.000Z,19.78
2017-09-07T10:28:17.636Z,19.81
2017-09-07T10:30:52.380Z,20.20
2017-09-07T10:33:27.077Z,20.60
2017-09-07T10:36:01.601Z,21.08
2017-09-07T10:38:36.297Z,21.31
2017-09-07T10:41:10.993Z,21.40
2017-09-07T10:43:45.686Z,21.11
2017-09-07T10:46:21.326Z,20.84
2017-09-07T10:48:55.940Z,20.80
2017-09-07T10:51:30.649Z,20.66
2017-09-07T10:54:04.845Z,20.55
2017-09-07T10:56:39.869Z,20.52
2017-09-07T10:59:14.623Z,20.38
2017-09-07T11:01:48.773Z,20.38
2017-09-07T11:04:23.608Z,20.57
2017-09-07T11:06:58.197Z,20.90
2017-09-07T11:09:32.840Z,21.04
2017-09-07T11:12:07.479Z,21.57
2017-09-07T11:14:42.218Z,21.90
2017-09-07T11:17:17.024Z,22.08
2017-09-07T11:19:51.854Z,21.69
2017-09-07T11:22:26.510Z,21.16
2017-09-07T11:25:01.365Z,20.85
2017-09-07T11:27:37.185Z,20.72
2017-09-07T11:30:11.817Z,20.63
2017-09-07T11:32:46.554Z,20.43
2017-09-07T11:35:21.477Z,20.18
2017-09-07T11:37:56.113Z,20.02
2017-09-07T11:40:30.967Z,19.99
2017-09-07T11:43:05.847Z,19.82
2017-09-07T11:45:40.620Z,19.57
2017-09-07T11:48:15.154Z,19.59
2017-09-07T11:50:49.829Z,19.59
2017-09-07T11:53:24.398Z,19.60
2017-09-07T11:55:58.910Z,19.68
2017-09-07T11:58:33.618Z,19.74
2017-09-07T12:01:08.132Z,19.82
2017-09-07T12:03:42.848Z,19.91
2017-09-07T12:06:18.502Z,20.03
2017-09-07T12:08:53.176Z,20.08
2017-09-07T12:11:27.732Z,20.02
2017-09-07T12:14:02.437Z,20.22
2017-09-07T12:16:37.053Z,20.39
2017-09-07T12:19:11.816Z,20.66
2017-09-07T12:21:46.420Z,20.47
2017-09-07T12:24:21.332Z,20.66
2017-09-07T12:26:56.968Z,20.93
2017-09-07T12:29:31.610Z,20.94
2017-09-07T12:32:06.348Z,21.25
2017-09-07T12:34:41.165Z,21.50
2017-09-07T12:37:16.129Z,21.62
2017-09-07T12:39:50.669Z,21.61
2017-09-07T12:42:25.445Z,21.80
2017-09-07T12:45:00.220Z,21.96
2017-09-07T12:47:34.876Z,22.44
2017-09-07T12:50:09.637Z,22.44
2017-09-07T12:52:44.324Z,22.20
2017-09-07T12:55:18.967Z,22.34
2017-09-07T12:57:53.712Z,22.43
2017-09-07T13:00:28.418Z,22.55
2017-09-07T13:03:02.960Z,22.57
2017-09-07T13:05:37.589Z,22.65
2017-09-07T13:08:12.324Z,22.16
2017-09-07T13:10:46.848Z,21.64
2017-09-07T13:13:21.689Z,21.65
2017-09-07T13:15:57.305Z,21.72
2017-09-07T13:18:32.991Z,21.31
2017-09-07T13:21:08.621Z,20.48
2017-09-07T13:23:43.132Z,20.07
2017-09-07T13:26:18.784Z,19.73
2017-09-07T13:28:53.540Z,19.46
2017-09-07T13:31:28.276Z,19.40
2017-09-07T13:34:03.247Z,19.35
2017-09-07T13:36:38.200Z,19.35
2017-09-07T13:39:12.952Z,19.24
2017-09-07T13:41:47.785Z,19.21
2017-09-07T13:44:22.717Z,19.22
2017-09-07T13:46:57.500Z,19.37
2017-09-07T13:49:32.808Z,19.60
2017-09-07T13:52:07.525Z,19.86
2017-09-07T13:54:42.286Z,19.92
2017-09-07T13:57:17.112Z,19.93
2017-09-07T13:59:51.712Z,20.19
2017-09-07T14:02:26.437Z,20.43
2017-09-07T14:05:01.393Z,20.59
2017-09-07T14:07:36.120Z,20.54
2017-09-07T14:10:10.730Z,20.37
2017-09-07T14:12:45.378Z,20.35
2017-09-07T14:15:20.207Z,20.47
2017-09-07T14:17:54.909Z,20.82
2017-09-07T14:20:29.636Z,21.12
2017-09-07T14:23:04.173Z,21.31
2017-09-07T14:25:38.897Z,21.34
2017-09-07T14:28:13.726Z,21.43
2017-09-07T14:30:48.452Z,21.41
2017-09-07T14:33:23.136Z,21.48
2017-09-07T14:35:57.817Z,21.79
2017-09-07T14:38:32.538Z,22.00
2017-09-07T14:41:08.308Z,21.95
2017-09-07T14:43:43.277Z,21.73
2017-09-07T14:46:18.353Z,21.46
2017-09-07T14:48:53.340Z,21.15
2017-09-07T14:51:28.380Z,20.87
2017-09-07T14:54:02.787Z,20.86
2017-09-07T14:56:37.476Z,20.72
2017-09-07T14:59:12.773Z,20.58
2017-09-07T15:01:48.130Z,20.42
2017-09-07T15:04:23.476Z,20.28
2017-09-07T15:06:58.651Z,20.28
2017-09-07T15:09:33.612Z,20.05
2017-09-07T15:12:08.289Z,19.96
2017-09-07T15:14:43.885Z,19.99
2017-09-07T15:17:18.792Z,20.01
2017-09-07T15:19:54.702Z,20.00
2017-09-07T15:22:30.461Z,19.88
2017-09-07T15:25:05.025Z,19.77
2017-09-07T15:27:39.845Z,19.76
2017-09-07T15:30:17.058Z,19.70
2017-09-07T15:32:51.704Z,19.73
2017-09-07T15:35:26.409Z,19.71
2017-09-07T15:38:03.492Z,19.77
2017-09-07T15:40:40.170Z,19.78
2017-09-07T15:43:14.821Z,19.80
2017-09-07T15:45:49.668Z,19.65
2017-09-07T15:48:24.184Z,19.60
2017-09-07T15:50:58.889Z,19.54
2017-09-07T15:53:33.716Z,19.54
2017-09-07T15:56:09.457Z,19.54
2017-09-07T15:58:44.194Z,19.54
2017-09-07T16:01:18.919Z,19.54
2017-09-07T16:03:53.676Z,19.55
2017-09-07T16:06:28.377Z,19.44
2017-09-07T16:09:02.930Z,19.31
2017-09-07T16:11:37.854Z,19.26
2017-09-07T16:14:12.569Z,19.27
2017-09-07T16:16:47.241Z,19.33
2017-09-07T16:19:21.985Z,19.43
2017-09-07T16:21:58.102Z,19.34
2017-09-07T16:24:32.604Z,19.30
2017-09-07T16:27:07.521Z,19.30
2017-09-07T16:29:41.969Z,19.37
2017-09-07T16:32:16.813Z,19.30
2017-09-07T16:34:51.429Z,19.16
2017-09-07T16:37:26.176Z,19.04
2017-09-07T16:40:00.857Z,19.03
2017-09-07T16:42:35.505Z,19.01
2017-09-07T16:45:10.270Z,18.93
2017-09-07T16:47:44.916Z,18.94
2017-09-07T16:50:19.718Z,18.78
2017-09-07T16:52:54.292Z,18.79
2017-09-07T16:55:29.025Z,18.76
2017-09-07T16:58:03.676Z,18.72
2017-09-07T17:00:38.641Z,18.67
2017-09-07T17:03:13.237Z,18.65
2017-09-07T17:05:47.964Z,18.79
2017-09-07T17:08:22.972Z,18.78
2017-09-07T17:10:57.525Z,18.68
2017-09-07T17:13:32.808Z,18.85
2017-09-07T17:16:08.048Z,18.66
2017-09-07T17:18:42.799Z,18.60
2017-09-07T17:21:17.560Z,18.65
2017-09-07T17:23:53.413Z,18.72
2017-09-07T17:26:28.093Z,18.70
2017-09-07T17:29:02.824Z,19.01
2017-09-07T17:31:37.570Z,19.24
2017-09-07T17:34:12.180Z,19.37
2017-09-07T17:36:47.052Z,19.27
2017-09-07T17:39:21.781Z,19.40
2017-09-07T17:41:56.412Z,19.55
2017-09-07T17:44:31.169Z,19.62
2017-09-07T17:47:05.864Z,19.46
2017-09-07T17:49:41.245Z,19.47
2017-09-07T17:52:15.749Z,19.32
2017-09-07T17:54:50.600Z,19.17
2017-09-07T17:57:25.184Z,19.04
2017-09-07T17:59:59.910Z,18.98
2017-09-07T18:02:34.640Z,18.94
2017-09-07T18:05:09.264Z,18.83
2017-09-07T18:07:44.020Z,18.75
2017-09-07T18:10:18.845Z,18.68
2017-09-07T18:12:53.517Z,18.65
2017-09-07T18:15:28.266Z,18.62
2017-09-07T18:18:03.144Z,18.63
2017-09-07T18:20:39.012Z,18.55
2017-09-07T18:23:13.792Z,18.53
2017-09-07T18:25:48.504Z,18.46
2017-09-07T18:28:23.026Z,18.43
2017-09-07T18:30:57.976Z,18.37
2017-09-07T18:33:32.809Z,18.31
2017-09-07T18:36:07.629Z,18.34
2017-09-07T18:38:42.365Z,18.18
2017-09-07T18:41:18.592Z,18.15
2017-09-07T18:43:53.586Z,18.13
2017-09-07T18:46:28.323Z,18.03
2017-09-07T18:49:03.029Z,17.89
2017-09-07T18:51:37.894Z,17.79
2017-09-07T18:54:12.513Z,17.67
2017-09-07T18:56:47.379Z,17.66
2017-09-07T18:59:22.064Z,17.79
2017-09-07T19:01:57.038Z,17.62
2017-09-07T19:04:31.649Z,17.58
2017-09-07T19:07:06.444Z,17.54
2017-09-07T19:09:41.156Z,17.52
2017-09-07T19:12:16.063Z,17.48
2017-09-07T19:14:51.041Z,17.47
2017-09-07T19:17:26.091Z,17.47
2017-09-07T19:20:00.937Z,17.50
2017-09-07T19:22:35.638Z,17.44
2017-09-07T19:25:10.567Z,17.35
2017-09-07T19:27:45.205Z,17.23
2017-09-07T19:30:20.242Z,17.25
2017-09-07T19:32:55.209Z,17.16
2017-09-07T19:35:30.749Z,17.15
2017-09-07T19:38:05.612Z,17.12
2017-09-07T19:40:40.305Z,17.12
2017-09-07T19:43:15.269Z,17.02
2017-09-07T19:45:50.165Z,17.08
2017-09-07T19:48:24.852Z,16.77
2017-09-07T19:50:59.708Z,16.82
2017-09-07T19:53:34.415Z,16.80
2017-09-07T19:56:09.501Z,16.82
2017-09-07T19:58:44.117Z,16.83
2017-09-07T20:01:19.713Z,16.75
2017-09-07T20:03:54.581Z,16.78
2017-09-07T20:06:29.317Z,16.78
2017-09-07T20:09:03.624Z,16.79
2017-09-07T20:11:38.836Z,16.78
2017-09-07T20:14:13.573Z,16.72
2017-09-07T20:16:48.448Z,16.63
2017-09-07T20:19:23.276Z,16.53
2017-09-07T20:21:57.981Z,16.56
2017-09-07T20:24:32.721Z,16.60
2017-09-07T20:27:07.405Z,16.65
2017-09-07T20:29:42.490Z,16.73
2017-09-07T20:32:17.548Z,16.74
2017-09-07T20:34:52.480Z,16.75
2017-09-07T20:37:27.617Z,16.74
2017-09-07T20:40:02.002Z,16.59
2017-09-07T20:42:37.060Z,16.57
2017-09-07T20:45:11.912Z,16.47
2017-09-07T20:47:46.488Z,16.54
2017-09-07T20:50:21.272Z,16.47
2017-09-07T20:52:56.072Z,16.54
2017-09-07T20:55:30.809Z,16.49
2017-09-07T20:58:05.633Z,16.43
2017-09-07T21:00:40.252Z,16.55
2017-09-07T21:03:15.014Z,16.45
2017-09-07T21:05:49.649Z,16.45
2017-09-07T21:08:24.463Z,16.52
2017-09-07T21:10:59.300Z,16.40
2017-09-07T21:13:33.928Z,16.42
2017-09-07T21:16:08.664Z,16.45
2017-09-07T21:18:43.584Z,16.51
2017-09-07T21:21:19.476Z,16.52
2017-09-07T21:23:54.837Z,16.38
2017-09-07T21:26:29.965Z,16.43
2017-09-07T21:29:04.849Z,16.49
2017-09-07T21:31:39.603Z,16.39
2017-09-07T21:34:14.423Z,16.41
2017-09-07T21:36:49.127Z,16.45
2017-09-07T21:39:23.864Z,16.47
2017-09-07T21:41:58.684Z,16.41
2017-09-07T21:44:33.515Z,16.37
2017-09-07T21:47:08.225Z,16.39
2017-09-07T21:49:43.583Z,16.39
2017-09-07T21:52:18.205Z,16.45
2017-09-07T21:54:52.968Z,16.40
2017-09-07T21:57:27.408Z,16.37
2017-09-07T22:00:02.174Z,16.26
2017-09-07T22:02:36.720Z,16.25
2017-09-07T22:05:11.520Z,16.34
2017-09-07T22:07:46.290Z,16.19
2017-09-07T22:10:20.984Z,16.24
2017-09-07T22:12:56.814Z,16.24
2017-09-07T22:15:31.465Z,16.24
2017-09-07T22:18:06.758Z,16.22
2017-09-07T22:20:42.107Z,16.14
2017-09-07T22:23:16.969Z,16.12
2017-09-07T22:25:51.969Z,16.16
2017-09-07T22:28:26.664Z,16.07
2017-09-07T22:31:01.484Z,16.10
2017-09-07T22:33:36.211Z,16.13
2017-09-07T22:36:12.753Z,16.17
2017-09-07T22:38:47.308Z,15.97
2017-09-07T22:41:22.160Z,15.97
2017-09-07T22:43:57.064Z,15.99
2017-09-07T22:46:32.000Z,15.99
2017-09-07T22:49:06.717Z,15.97
2017-09-07T22:51:41.579Z,15.97
2017-09-07T22:54:16.240Z,16.04
2017-09-07T22:56:51.134Z,16.11
2017-09-07T22:59:25.885Z,16.05
2017-09-07T23:02:00.709Z,16.07
2017-09-07T23:04:35.396Z,16.14
2017-09-07T23:07:10.105Z,16.17
2017-09-07T23:09:44.801Z,16.08
2017-09-07T23:12:19.476Z,16.15
2017-09-07T23:14:54.463Z,16.18
2017-09-07T23:17:30.156Z,16.12
2017-09-07T23:20:05.742Z,16.16
2017-09-07T23:22:40.422Z,16.15
2017-09-07T23:25:15.167Z,16.12
2017-09-07T23:27:49.837Z,16.01
2017-09-07T23:30:24.676Z,16.03
2017-09-07T23:32:59.581Z,16.22
2017-09-07T23:35:34.208Z,16.11
2017-09-07T23:38:08.913Z,16.13
2017-09-07T23:40:43.536Z,16.20
2017-09-07T23:43:18.265Z,16.13
2017-09-07T23:45:53.096Z,16.08
2017-09-07T23:48:27.965Z,16.03
2017-09-07T23:51:02.852Z,16.07
2017-09-07T23:53:38.204Z,16.09
2017-09-07T23:56:13.961Z,15.99
2017-09-07T23:58:49.341Z,15.96
